sensor_id;sensor_type;location;lat;lon;timestamp;temperature;humidity
22544;DHT22;11438;52.044;8.716;2024-01-30T00:02:23;8.40;99.20
22544;DHT22;11438;52.044;8.716;2024-01-30T00:04:49;8.40;99.20
22544;DHT22;11438;52.044;8.716;2024-01-30T00:07:14;8.40;99.20
22544;DHT22;11438;52.044;8.716;2024-01-30T00:09:40;8.40;99.20
22544;DHT22;11438;52.044;8.716;2024-01-30T00:12:06;8.40;99.30
22544;DHT22;11438;52.044;8.716;2024-01-30T00:14:32;8.40;99.30
22544;DHT22;11438;52.044;8.716;2024-01-30T00:16:57;8.30;99.40
22544;DHT22;11438;52.044;8.716;2024-01-30T00:19:23;8.40;99.50
22544;DHT22;11438;52.044;8.716;2024-01-30T00:21:48;8.30;99.50
22544;DHT22;11438;52.044;8.716;2024-01-30T00:24:13;8.30;99.60
22544;DHT22;11438;52.044;8.716;2024-01-30T00:26:39;8.30;99.60
22544;DHT22;11438;52.044;8.716;2024-01-30T00:29:05;8.30;99.50
22544;DHT22;11438;52.044;8.716;2024-01-30T00:31:30;8.30;99.50
22544;DHT22;11438;52.044;8.716;2024-01-30T00:33:55;8.30;99.50
22544;DHT22;11438;52.044;8.716;2024-01-30T00:36:21;8.30;99.50
22544;DHT22;11438;52.044;8.716;2024-01-30T00:38:47;8.30;99.50
22544;DHT22;11438;52.044;8.716;2024-01-30T00:41:12;8.30;99.50
22544;DHT22;11438;52.044;8.716;2024-01-30T00:43:38;8.30;99.50
22544;DHT22;11438;52.044;8.716;2024-01-30T00:46:03;8.30;99.50
22544;DHT22;11438;52.044;8.716;2024-01-30T00:48:29;8.30;99.50
22544;DHT22;11438;52.044;8.716;2024-01-30T00:50:54;8.30;99.50
22544;DHT22;11438;52.044;8.716;2024-01-30T00:53:20;8.30;99.50
22544;DHT22;11438;52.044;8.716;2024-01-30T00:55:46;8.20;99.50
22544;DHT22;11438;52.044;8.716;2024-01-30T00:58:11;8.20;99.50
22544;DHT22;11438;52.044;8.716;2024-01-30T01:00:37;8.20;99.60
22544;DHT22;11438;52.044;8.716;2024-01-30T01:03:02;8.20;99.60
22544;DHT22;11438;52.044;8.716;2024-01-30T01:05:28;8.20;99.90
22544;DHT22;11438;52.044;8.716;2024-01-30T01:07:53;8.20;99.60
22544;DHT22;11438;52.044;8.716;2024-01-30T01:10:19;8.20;99.60
22544;DHT22;11438;52.044;8.716;2024-01-30T01:12:45;8.20;99.60
22544;DHT22;11438;52.044;8.716;2024-01-30T01:15:11;8.20;99.60
22544;DHT22;11438;52.044;8.716;2024-01-30T01:17:38;8.20;99.50
22544;DHT22;11438;52.044;8.716;2024-01-30T01:20:04;8.20;99.50
22544;DHT22;11438;52.044;8.716;2024-01-30T01:22:31;8.20;99.50
22544;DHT22;11438;52.044;8.716;2024-01-30T01:24:57;8.20;99.50
22544;DHT22;11438;52.044;8.716;2024-01-30T01:27:23;8.20;99.50
22544;DHT22;11438;52.044;8.716;2024-01-30T01:29:48;8.10;99.50
22544;DHT22;11438;52.044;8.716;2024-01-30T01:32:14;8.10;99.50
22544;DHT22;11438;52.044;8.716;2024-01-30T01:34:39;8.10;99.50
22544;DHT22;11438;52.044;8.716;2024-01-30T01:37:05;8.10;99.50
22544;DHT22;11438;52.044;8.716;2024-01-30T01:39:31;8.10;99.40
22544;DHT22;11438;52.044;8.716;2024-01-30T01:41:56;8.10;99.50
22544;DHT22;11438;52.044;8.716;2024-01-30T01:44:21;8.10;99.50
22544;DHT22;11438;52.044;8.716;2024-01-30T01:46:47;8.10;99.50
22544;DHT22;11438;52.044;8.716;2024-01-30T01:49:13;8.10;99.50
22544;DHT22;11438;52.044;8.716;2024-01-30T01:51:41;8.00;99.50
22544;DHT22;11438;52.044;8.716;2024-01-30T01:54:07;8.00;99.50
22544;DHT22;11438;52.044;8.716;2024-01-30T01:56:34;8.00;99.50
22544;DHT22;11438;52.044;8.716;2024-01-30T01:59:03;8.00;99.60
22544;DHT22;11438;52.044;8.716;2024-01-30T02:01:31;8.00;99.60
22544;DHT22;11438;52.044;8.716;2024-01-30T02:03:58;8.00;99.60
22544;DHT22;11438;52.044;8.716;2024-01-30T02:06:23;7.90;99.60
22544;DHT22;11438;52.044;8.716;2024-01-30T02:08:49;7.90;99.60
22544;DHT22;11438;52.044;8.716;2024-01-30T02:11:14;7.90;99.60
22544;DHT22;11438;52.044;8.716;2024-01-30T02:13:41;7.90;99.70
22544;DHT22;11438;52.044;8.716;2024-01-30T02:16:07;7.90;99.70
22544;DHT22;11438;52.044;8.716;2024-01-30T02:18:32;7.90;99.70
22544;DHT22;11438;52.044;8.716;2024-01-30T02:23:27;7.90;99.80
22544;DHT22;11438;52.044;8.716;2024-01-30T02:25:53;7.90;99.80
22544;DHT22;11438;52.044;8.716;2024-01-30T02:28:19;7.80;99.70
22544;DHT22;11438;52.044;8.716;2024-01-30T02:30:46;7.80;99.80
22544;DHT22;11438;52.044;8.716;2024-01-30T02:33:12;7.80;99.80
22544;DHT22;11438;52.044;8.716;2024-01-30T02:35:37;7.80;99.80
22544;DHT22;11438;52.044;8.716;2024-01-30T02:38:03;7.80;99.90
22544;DHT22;11438;52.044;8.716;2024-01-30T02:40:29;7.80;99.90
22544;DHT22;11438;52.044;8.716;2024-01-30T02:42:54;7.80;99.90
22544;DHT22;11438;52.044;8.716;2024-01-30T02:45:20;7.80;99.90
22544;DHT22;11438;52.044;8.716;2024-01-30T02:47:45;7.70;99.80
22544;DHT22;11438;52.044;8.716;2024-01-30T02:50:11;7.70;99.80
22544;DHT22;11438;52.044;8.716;2024-01-30T02:52:36;7.70;99.80
22544;DHT22;11438;52.044;8.716;2024-01-30T02:55:02;7.70;99.90
22544;DHT22;11438;52.044;8.716;2024-01-30T02:57:29;7.70;99.80
22544;DHT22;11438;52.044;8.716;2024-01-30T02:59:54;7.70;99.80
22544;DHT22;11438;52.044;8.716;2024-01-30T03:02:20;7.70;99.90
22544;DHT22;11438;52.044;8.716;2024-01-30T03:04:45;7.70;99.90
22544;DHT22;11438;52.044;8.716;2024-01-30T03:07:11;7.70;99.90
22544;DHT22;11438;52.044;8.716;2024-01-30T03:09:37;7.70;99.90
22544;DHT22;11438;52.044;8.716;2024-01-30T03:12:03;7.70;99.90
22544;DHT22;11438;52.044;8.716;2024-01-30T03:14:31;7.70;99.90
22544;DHT22;11438;52.044;8.716;2024-01-30T03:16:57;7.70;99.90
22544;DHT22;11438;52.044;8.716;2024-01-30T03:19:23;7.60;99.90
22544;DHT22;11438;52.044;8.716;2024-01-30T03:21:48;7.60;99.90
22544;DHT22;11438;52.044;8.716;2024-01-30T03:24:13;7.60;99.90
22544;DHT22;11438;52.044;8.716;2024-01-30T03:26:39;7.70;99.90
22544;DHT22;11438;52.044;8.716;2024-01-30T03:29:04;7.60;99.90
22544;DHT22;11438;52.044;8.716;2024-01-30T03:31:30;7.60;99.90
22544;DHT22;11438;52.044;8.716;2024-01-30T03:33:55;7.60;99.90
22544;DHT22;11438;52.044;8.716;2024-01-30T03:36:21;7.60;99.90
22544;DHT22;11438;52.044;8.716;2024-01-30T03:38:46;7.60;99.90
22544;DHT22;11438;52.044;8.716;2024-01-30T03:41:12;7.60;99.90
22544;DHT22;11438;52.044;8.716;2024-01-30T03:43:37;7.60;99.90
22544;DHT22;11438;52.044;8.716;2024-01-30T03:46:03;7.60;99.90
22544;DHT22;11438;52.044;8.716;2024-01-30T03:48:29;7.60;99.90
22544;DHT22;11438;52.044;8.716;2024-01-30T03:50:55;7.60;99.90
22544;DHT22;11438;52.044;8.716;2024-01-30T03:53:20;7.60;99.90
22544;DHT22;11438;52.044;8.716;2024-01-30T03:55:46;7.60;99.90
22544;DHT22;11438;52.044;8.716;2024-01-30T03:58:11;7.60;99.90
22544;DHT22;11438;52.044;8.716;2024-01-30T04:00:37;7.60;99.90
22544;DHT22;11438;52.044;8.716;2024-01-30T04:03:02;7.60;99.90
22544;DHT22;11438;52.044;8.716;2024-01-30T04:05:28;7.60;99.90
22544;DHT22;11438;52.044;8.716;2024-01-30T04:07:53;7.60;99.90
22544;DHT22;11438;52.044;8.716;2024-01-30T04:10:19;7.60;99.90
22544;DHT22;11438;52.044;8.716;2024-01-30T04:12:44;7.60;99.90
22544;DHT22;11438;52.044;8.716;2024-01-30T04:15:10;7.60;99.90
22544;DHT22;11438;52.044;8.716;2024-01-30T04:17:35;7.60;99.90
22544;DHT22;11438;52.044;8.716;2024-01-30T04:20:01;7.60;99.90
22544;DHT22;11438;52.044;8.716;2024-01-30T04:22:26;7.60;99.90
22544;DHT22;11438;52.044;8.716;2024-01-30T04:24:52;7.60;99.90
22544;DHT22;11438;52.044;8.716;2024-01-30T04:27:17;7.60;99.90
22544;DHT22;11438;52.044;8.716;2024-01-30T04:29:43;7.60;99.90
22544;DHT22;11438;52.044;8.716;2024-01-30T04:32:09;7.60;99.90
22544;DHT22;11438;52.044;8.716;2024-01-30T04:34:36;7.60;99.90
22544;DHT22;11438;52.044;8.716;2024-01-30T04:37:02;7.60;99.90
22544;DHT22;11438;52.044;8.716;2024-01-30T04:39:28;7.50;99.90
22544;DHT22;11438;52.044;8.716;2024-01-30T04:41:53;7.50;99.90
22544;DHT22;11438;52.044;8.716;2024-01-30T04:44:18;7.50;99.90
22544;DHT22;11438;52.044;8.716;2024-01-30T04:46:44;7.50;99.90
22544;DHT22;11438;52.044;8.716;2024-01-30T04:49:10;7.50;99.90
22544;DHT22;11438;52.044;8.716;2024-01-30T04:51:36;7.50;99.90
22544;DHT22;11438;52.044;8.716;2024-01-30T04:54:01;7.50;99.90
22544;DHT22;11438;52.044;8.716;2024-01-30T04:56:26;7.50;99.90
22544;DHT22;11438;52.044;8.716;2024-01-30T04:58:52;7.50;99.90
22544;DHT22;11438;52.044;8.716;2024-01-30T05:01:17;7.50;99.90
22544;DHT22;11438;52.044;8.716;2024-01-30T05:03:43;7.50;99.90
22544;DHT22;11438;52.044;8.716;2024-01-30T05:06:09;7.40;99.90
22544;DHT22;11438;52.044;8.716;2024-01-30T05:08:34;7.40;99.90
22544;DHT22;11438;52.044;8.716;2024-01-30T05:11:04;7.40;99.90
22544;DHT22;11438;52.044;8.716;2024-01-30T05:13:33;7.50;99.90
22544;DHT22;11438;52.044;8.716;2024-01-30T05:15:59;7.50;99.90
22544;DHT22;11438;52.044;8.716;2024-01-30T05:18:26;7.40;99.90
22544;DHT22;11438;52.044;8.716;2024-01-30T05:20:52;7.50;99.90
22544;DHT22;11438;52.044;8.716;2024-01-30T05:23:17;7.50;99.90
22544;DHT22;11438;52.044;8.716;2024-01-30T05:25:43;7.40;99.90
22544;DHT22;11438;52.044;8.716;2024-01-30T05:28:08;7.50;99.90
22544;DHT22;11438;52.044;8.716;2024-01-30T05:30:34;7.50;99.90
22544;DHT22;11438;52.044;8.716;2024-01-30T05:32:59;7.50;99.90
22544;DHT22;11438;52.044;8.716;2024-01-30T05:35:25;7.50;99.90
22544;DHT22;11438;52.044;8.716;2024-01-30T05:37:50;7.40;99.90
22544;DHT22;11438;52.044;8.716;2024-01-30T05:40:16;7.40;99.90
22544;DHT22;11438;52.044;8.716;2024-01-30T05:42:42;7.40;99.90
22544;DHT22;11438;52.044;8.716;2024-01-30T05:45:08;7.40;99.90
22544;DHT22;11438;52.044;8.716;2024-01-30T05:47:34;7.40;99.90
22544;DHT22;11438;52.044;8.716;2024-01-30T05:50:00;7.40;99.90
22544;DHT22;11438;52.044;8.716;2024-01-30T05:52:25;7.40;99.90
22544;DHT22;11438;52.044;8.716;2024-01-30T05:54:51;7.40;99.90
22544;DHT22;11438;52.044;8.716;2024-01-30T05:57:16;7.40;99.90
22544;DHT22;11438;52.044;8.716;2024-01-30T05:59:42;7.40;99.90
22544;DHT22;11438;52.044;8.716;2024-01-30T06:02:10;7.40;99.90
22544;DHT22;11438;52.044;8.716;2024-01-30T06:04:36;7.40;99.90
22544;DHT22;11438;52.044;8.716;2024-01-30T06:07:01;7.40;99.90
22544;DHT22;11438;52.044;8.716;2024-01-30T06:09:27;7.40;99.90
22544;DHT22;11438;52.044;8.716;2024-01-30T06:11:53;7.40;99.90
22544;DHT22;11438;52.044;8.716;2024-01-30T06:14:19;7.40;99.90
22544;DHT22;11438;52.044;8.716;2024-01-30T06:16:44;7.40;99.90
22544;DHT22;11438;52.044;8.716;2024-01-30T06:19:10;7.40;99.90
22544;DHT22;11438;52.044;8.716;2024-01-30T06:21:35;7.40;99.90
22544;DHT22;11438;52.044;8.716;2024-01-30T06:24:02;7.40;99.90
22544;DHT22;11438;52.044;8.716;2024-01-30T06:26:28;7.40;99.90
22544;DHT22;11438;52.044;8.716;2024-01-30T06:28:53;7.40;99.90
22544;DHT22;11438;52.044;8.716;2024-01-30T06:31:18;7.40;99.90
22544;DHT22;11438;52.044;8.716;2024-01-30T06:33:47;7.40;99.90
22544;DHT22;11438;52.044;8.716;2024-01-30T06:36:12;7.40;99.90
22544;DHT22;11438;52.044;8.716;2024-01-30T06:38:37;7.40;99.90
22544;DHT22;11438;52.044;8.716;2024-01-30T06:41:03;7.40;99.90
22544;DHT22;11438;52.044;8.716;2024-01-30T06:43:29;7.40;99.90
22544;DHT22;11438;52.044;8.716;2024-01-30T06:45:54;7.40;99.90
22544;DHT22;11438;52.044;8.716;2024-01-30T06:48:20;7.40;99.90
22544;DHT22;11438;52.044;8.716;2024-01-30T06:50:45;7.40;99.90
22544;DHT22;11438;52.044;8.716;2024-01-30T06:53:11;7.40;99.90
22544;DHT22;11438;52.044;8.716;2024-01-30T06:55:36;7.40;99.90
22544;DHT22;11438;52.044;8.716;2024-01-30T06:58:02;7.40;99.90
22544;DHT22;11438;52.044;8.716;2024-01-30T07:00:28;7.40;99.90
22544;DHT22;11438;52.044;8.716;2024-01-30T07:02:53;7.40;99.90
22544;DHT22;11438;52.044;8.716;2024-01-30T07:05:18;7.40;99.90
22544;DHT22;11438;52.044;8.716;2024-01-30T07:07:44;7.40;99.90
22544;DHT22;11438;52.044;8.716;2024-01-30T07:10:10;7.40;99.90
22544;DHT22;11438;52.044;8.716;2024-01-30T07:12:35;7.40;99.90
22544;DHT22;11438;52.044;8.716;2024-01-30T07:15:01;7.40;99.90
22544;DHT22;11438;52.044;8.716;2024-01-30T07:17:28;7.40;99.90
22544;DHT22;11438;52.044;8.716;2024-01-30T07:19:53;7.40;99.90
22544;DHT22;11438;52.044;8.716;2024-01-30T07:22:19;7.40;99.90
22544;DHT22;11438;52.044;8.716;2024-01-30T07:24:44;7.40;99.90
22544;DHT22;11438;52.044;8.716;2024-01-30T07:27:12;7.40;99.90
22544;DHT22;11438;52.044;8.716;2024-01-30T07:29:38;7.40;99.90
22544;DHT22;11438;52.044;8.716;2024-01-30T07:32:04;7.40;99.90
22544;DHT22;11438;52.044;8.716;2024-01-30T07:34:29;7.40;99.90
22544;DHT22;11438;52.044;8.716;2024-01-30T07:36:55;7.40;99.90
22544;DHT22;11438;52.044;8.716;2024-01-30T07:39:20;7.50;99.90
22544;DHT22;11438;52.044;8.716;2024-01-30T07:41:46;7.50;99.90
22544;DHT22;11438;52.044;8.716;2024-01-30T07:44:11;7.50;99.90
22544;DHT22;11438;52.044;8.716;2024-01-30T07:46:37;7.50;99.90
22544;DHT22;11438;52.044;8.716;2024-01-30T07:49:02;7.50;99.90
22544;DHT22;11438;52.044;8.716;2024-01-30T07:51:28;7.50;99.90
22544;DHT22;11438;52.044;8.716;2024-01-30T07:53:54;7.50;99.90
22544;DHT22;11438;52.044;8.716;2024-01-30T07:56:20;7.60;99.90
22544;DHT22;11438;52.044;8.716;2024-01-30T07:58:45;7.60;99.90
22544;DHT22;11438;52.044;8.716;2024-01-30T08:01:11;7.60;99.90
22544;DHT22;11438;52.044;8.716;2024-01-30T08:03:36;7.60;99.90
22544;DHT22;11438;52.044;8.716;2024-01-30T08:06:05;7.60;99.90
22544;DHT22;11438;52.044;8.716;2024-01-30T08:08:32;7.60;99.90
22544;DHT22;11438;52.044;8.716;2024-01-30T08:10:57;7.60;99.90
22544;DHT22;11438;52.044;8.716;2024-01-30T08:13:23;7.60;99.90
22544;DHT22;11438;52.044;8.716;2024-01-30T08:15:48;7.70;99.90
22544;DHT22;11438;52.044;8.716;2024-01-30T08:18:14;7.70;99.90
22544;DHT22;11438;52.044;8.716;2024-01-30T08:20:39;7.70;99.90
22544;DHT22;11438;52.044;8.716;2024-01-30T08:23:05;7.70;99.90
22544;DHT22;11438;52.044;8.716;2024-01-30T08:25:30;7.80;99.90
22544;DHT22;11438;52.044;8.716;2024-01-30T08:27:56;7.80;99.90
22544;DHT22;11438;52.044;8.716;2024-01-30T08:30:22;7.80;99.90
22544;DHT22;11438;52.044;8.716;2024-01-30T08:32:48;7.90;99.90
22544;DHT22;11438;52.044;8.716;2024-01-30T08:35:13;7.90;99.90
22544;DHT22;11438;52.044;8.716;2024-01-30T08:37:41;7.90;99.90
22544;DHT22;11438;52.044;8.716;2024-01-30T08:40:07;8.00;99.90
22544;DHT22;11438;52.044;8.716;2024-01-30T08:42:34;8.00;99.90
22544;DHT22;11438;52.044;8.716;2024-01-30T08:44:59;8.00;99.90
22544;DHT22;11438;52.044;8.716;2024-01-30T08:47:25;8.10;99.90
22544;DHT22;11438;52.044;8.716;2024-01-30T08:49:51;8.10;99.90
22544;DHT22;11438;52.044;8.716;2024-01-30T08:52:16;8.20;99.90
22544;DHT22;11438;52.044;8.716;2024-01-30T08:54:42;8.20;99.90
22544;DHT22;11438;52.044;8.716;2024-01-30T08:57:08;8.20;99.90
22544;DHT22;11438;52.044;8.716;2024-01-30T08:59:33;8.20;99.90
22544;DHT22;11438;52.044;8.716;2024-01-30T09:01:59;8.30;99.90
22544;DHT22;11438;52.044;8.716;2024-01-30T09:04:25;8.30;99.90
22544;DHT22;11438;52.044;8.716;2024-01-30T09:06:51;8.40;99.90
22544;DHT22;11438;52.044;8.716;2024-01-30T09:09:16;8.40;99.90
22544;DHT22;11438;52.044;8.716;2024-01-30T09:11:43;8.50;99.90
22544;DHT22;11438;52.044;8.716;2024-01-30T09:14:08;8.50;99.90
22544;DHT22;11438;52.044;8.716;2024-01-30T09:16:34;8.50;99.90
22544;DHT22;11438;52.044;8.716;2024-01-30T09:18:59;8.60;99.90
22544;DHT22;11438;52.044;8.716;2024-01-30T09:21:25;8.60;99.90
22544;DHT22;11438;52.044;8.716;2024-01-30T09:23:53;8.70;99.90
22544;DHT22;11438;52.044;8.716;2024-01-30T09:26:19;8.70;99.90
22544;DHT22;11438;52.044;8.716;2024-01-30T09:28:44;8.80;99.90
22544;DHT22;11438;52.044;8.716;2024-01-30T09:31:10;8.80;99.90
22544;DHT22;11438;52.044;8.716;2024-01-30T09:33:36;8.90;99.90
22544;DHT22;11438;52.044;8.716;2024-01-30T09:36:01;8.90;99.90
22544;DHT22;11438;52.044;8.716;2024-01-30T09:38:27;9.00;99.90
22544;DHT22;11438;52.044;8.716;2024-01-30T09:40:54;9.00;99.90
22544;DHT22;11438;52.044;8.716;2024-01-30T09:43:26;9.10;99.90
22544;DHT22;11438;52.044;8.716;2024-01-30T09:45:56;9.10;99.90
22544;DHT22;11438;52.044;8.716;2024-01-30T09:48:23;9.10;99.90
22544;DHT22;11438;52.044;8.716;2024-01-30T09:50:50;9.20;99.90
22544;DHT22;11438;52.044;8.716;2024-01-30T09:53:16;9.30;99.90
22544;DHT22;11438;52.044;8.716;2024-01-30T09:55:43;9.40;99.90
22544;DHT22;11438;52.044;8.716;2024-01-30T09:58:09;9.40;99.90
22544;DHT22;11438;52.044;8.716;2024-01-30T10:00:34;9.50;99.90
22544;DHT22;11438;52.044;8.716;2024-01-30T10:03:00;9.50;99.90
22544;DHT22;11438;52.044;8.716;2024-01-30T10:05:31;9.60;99.90
22544;DHT22;11438;52.044;8.716;2024-01-30T10:07:59;9.60;99.90
22544;DHT22;11438;52.044;8.716;2024-01-30T10:13:05;9.70;99.90
22544;DHT22;11438;52.044;8.716;2024-01-30T10:15:30;9.80;99.90
22544;DHT22;11438;52.044;8.716;2024-01-30T10:17:56;9.80;99.90
22544;DHT22;11438;52.044;8.716;2024-01-30T10:20:21;9.90;99.90
22544;DHT22;11438;52.044;8.716;2024-01-30T10:22:48;9.90;99.90
22544;DHT22;11438;52.044;8.716;2024-01-30T10:25:14;10.00;99.90
22544;DHT22;11438;52.044;8.716;2024-01-30T10:27:40;10.00;99.90
22544;DHT22;11438;52.044;8.716;2024-01-30T10:30:06;10.00;99.90
22544;DHT22;11438;52.044;8.716;2024-01-30T10:32:32;10.10;99.90
22544;DHT22;11438;52.044;8.716;2024-01-30T10:34:58;10.20;99.90
22544;DHT22;11438;52.044;8.716;2024-01-30T10:37:25;10.20;99.90
22544;DHT22;11438;52.044;8.716;2024-01-30T10:39:53;10.20;99.90
22544;DHT22;11438;52.044;8.716;2024-01-30T10:42:21;10.30;99.90
22544;DHT22;11438;52.044;8.716;2024-01-30T10:45:23;10.40;99.90
22544;DHT22;11438;52.044;8.716;2024-01-30T10:47:53;10.40;99.90
22544;DHT22;11438;52.044;8.716;2024-01-30T10:50:24;10.50;99.90
22544;DHT22;11438;52.044;8.716;2024-01-30T10:52:50;10.60;99.90
22544;DHT22;11438;52.044;8.716;2024-01-30T10:55:16;10.60;99.90
22544;DHT22;11438;52.044;8.716;2024-01-30T10:57:43;10.70;99.90
22544;DHT22;11438;52.044;8.716;2024-01-30T11:00:10;10.70;99.90
22544;DHT22;11438;52.044;8.716;2024-01-30T11:02:41;10.80;99.90
22544;DHT22;11438;52.044;8.716;2024-01-30T11:05:08;10.90;99.90
22544;DHT22;11438;52.044;8.716;2024-01-30T11:07:34;11.00;99.90
22544;DHT22;11438;52.044;8.716;2024-01-30T11:10:03;11.10;99.90
22544;DHT22;11438;52.044;8.716;2024-01-30T11:12:31;11.10;99.90
22544;DHT22;11438;52.044;8.716;2024-01-30T11:15:06;11.20;99.90
22544;DHT22;11438;52.044;8.716;2024-01-30T11:20:19;11.40;99.90
22544;DHT22;11438;52.044;8.716;2024-01-30T11:22:46;11.50;99.90
22544;DHT22;11438;52.044;8.716;2024-01-30T11:25:16;11.70;99.90
22544;DHT22;11438;52.044;8.716;2024-01-30T11:27:43;11.80;99.90
22544;DHT22;11438;52.044;8.716;2024-01-30T11:30:09;11.90;99.90
22544;DHT22;11438;52.044;8.716;2024-01-30T11:32:35;12.00;99.90
22544;DHT22;11438;52.044;8.716;2024-01-30T11:35:03;12.20;99.90
22544;DHT22;11438;52.044;8.716;2024-01-30T11:37:30;12.30;99.90
22544;DHT22;11438;52.044;8.716;2024-01-30T11:39:56;12.40;99.90
22544;DHT22;11438;52.044;8.716;2024-01-30T11:42:23;12.50;99.90
22544;DHT22;11438;52.044;8.716;2024-01-30T11:44:52;12.60;99.90
22544;DHT22;11438;52.044;8.716;2024-01-30T11:47:17;12.80;99.90
22544;DHT22;11438;52.044;8.716;2024-01-30T11:49:43;12.90;99.90
22544;DHT22;11438;52.044;8.716;2024-01-30T11:52:09;13.00;99.90
22544;DHT22;11438;52.044;8.716;2024-01-30T11:54:35;13.10;99.90
22544;DHT22;11438;52.044;8.716;2024-01-30T11:57:00;13.20;99.90
22544;DHT22;11438;52.044;8.716;2024-01-30T11:59:26;13.30;99.90
22544;DHT22;11438;52.044;8.716;2024-01-30T12:01:52;13.40;99.90
22544;DHT22;11438;52.044;8.716;2024-01-30T12:04:17;13.50;99.90
22544;DHT22;11438;52.044;8.716;2024-01-30T12:06:43;13.70;99.90
22544;DHT22;11438;52.044;8.716;2024-01-30T12:09:09;13.70;99.90
22544;DHT22;11438;52.044;8.716;2024-01-30T12:11:44;13.80;99.90
22544;DHT22;11438;52.044;8.716;2024-01-30T12:14:11;13.90;99.90
22544;DHT22;11438;52.044;8.716;2024-01-30T12:16:37;14.00;99.90
22544;DHT22;11438;52.044;8.716;2024-01-30T12:19:02;14.00;99.90
22544;DHT22;11438;52.044;8.716;2024-01-30T12:21:29;14.10;99.90
22544;DHT22;11438;52.044;8.716;2024-01-30T12:23:54;14.10;99.90
22544;DHT22;11438;52.044;8.716;2024-01-30T12:26:20;14.20;99.90
22544;DHT22;11438;52.044;8.716;2024-01-30T12:28:49;14.20;99.90
22544;DHT22;11438;52.044;8.716;2024-01-30T12:31:17;14.30;99.90
22544;DHT22;11438;52.044;8.716;2024-01-30T12:33:43;14.30;99.90
22544;DHT22;11438;52.044;8.716;2024-01-30T12:36:08;14.40;99.90
22544;DHT22;11438;52.044;8.716;2024-01-30T12:38:34;14.40;99.90
22544;DHT22;11438;52.044;8.716;2024-01-30T12:40:59;14.40;99.90
22544;DHT22;11438;52.044;8.716;2024-01-30T12:43:25;14.40;99.90
22544;DHT22;11438;52.044;8.716;2024-01-30T12:45:52;14.40;99.90
22544;DHT22;11438;52.044;8.716;2024-01-30T12:48:18;14.50;99.90
22544;DHT22;11438;52.044;8.716;2024-01-30T12:50:43;14.40;99.90
22544;DHT22;11438;52.044;8.716;2024-01-30T12:53:09;14.50;99.90
22544;DHT22;11438;52.044;8.716;2024-01-30T12:55:35;14.50;99.90
22544;DHT22;11438;52.044;8.716;2024-01-30T12:58:00;14.50;99.90
22544;DHT22;11438;52.044;8.716;2024-01-30T13:00:26;14.50;99.90
22544;DHT22;11438;52.044;8.716;2024-01-30T13:02:52;14.50;99.90
22544;DHT22;11438;52.044;8.716;2024-01-30T13:05:17;14.50;99.90
22544;DHT22;11438;52.044;8.716;2024-01-30T13:07:43;14.50;99.90
22544;DHT22;11438;52.044;8.716;2024-01-30T13:10:09;14.50;99.90
22544;DHT22;11438;52.044;8.716;2024-01-30T13:12:34;14.60;99.90
22544;DHT22;11438;52.044;8.716;2024-01-30T13:15:01;14.60;99.90
22544;DHT22;11438;52.044;8.716;2024-01-30T13:17:27;14.50;99.90
22544;DHT22;11438;52.044;8.716;2024-01-30T13:19:52;14.60;99.90
22544;DHT22;11438;52.044;8.716;2024-01-30T13:22:19;14.60;99.90
22544;DHT22;11438;52.044;8.716;2024-01-30T13:24:47;14.60;99.90
22544;DHT22;11438;52.044;8.716;2024-01-30T13:27:12;14.60;99.90
22544;DHT22;11438;52.044;8.716;2024-01-30T13:29:38;14.60;99.90
22544;DHT22;11438;52.044;8.716;2024-01-30T13:32:04;14.70;99.90
22544;DHT22;11438;52.044;8.716;2024-01-30T13:34:29;14.70;99.90
22544;DHT22;11438;52.044;8.716;2024-01-30T13:36:55;14.70;99.90
22544;DHT22;11438;52.044;8.716;2024-01-30T13:39:20;14.70;99.90
22544;DHT22;11438;52.044;8.716;2024-01-30T13:41:46;14.80;99.90
22544;DHT22;11438;52.044;8.716;2024-01-30T13:44:12;14.80;99.90
22544;DHT22;11438;52.044;8.716;2024-01-30T13:46:37;14.80;99.90
22544;DHT22;11438;52.044;8.716;2024-01-30T13:49:04;14.90;99.90
22544;DHT22;11438;52.044;8.716;2024-01-30T13:51:29;14.90;99.90
22544;DHT22;11438;52.044;8.716;2024-01-30T13:53:55;14.90;99.90
22544;DHT22;11438;52.044;8.716;2024-01-30T13:56:20;14.90;99.90
22544;DHT22;11438;52.044;8.716;2024-01-30T13:58:48;15.00;99.90
22544;DHT22;11438;52.044;8.716;2024-01-30T14:01:14;15.00;99.90
22544;DHT22;11438;52.044;8.716;2024-01-30T14:03:39;15.00;99.90
22544;DHT22;11438;52.044;8.716;2024-01-30T14:06:05;15.00;99.90
22544;DHT22;11438;52.044;8.716;2024-01-30T14:08:31;15.10;99.90
22544;DHT22;11438;52.044;8.716;2024-01-30T14:10:58;15.00;99.90
22544;DHT22;11438;52.044;8.716;2024-01-30T14:13:23;15.00;99.90
22544;DHT22;11438;52.044;8.716;2024-01-30T14:15:53;15.10;99.90
22544;DHT22;11438;52.044;8.716;2024-01-30T14:18:18;15.10;99.90
22544;DHT22;11438;52.044;8.716;2024-01-30T14:20:44;15.10;99.90
22544;DHT22;11438;52.044;8.716;2024-01-30T14:23:09;15.10;99.90
22544;DHT22;11438;52.044;8.716;2024-01-30T14:25:35;15.10;99.90
22544;DHT22;11438;52.044;8.716;2024-01-30T14:28:00;15.10;99.90
22544;DHT22;11438;52.044;8.716;2024-01-30T14:30:26;15.10;99.90
22544;DHT22;11438;52.044;8.716;2024-01-30T14:32:51;15.10;99.90
22544;DHT22;11438;52.044;8.716;2024-01-30T14:35:17;15.10;99.90
22544;DHT22;11438;52.044;8.716;2024-01-30T14:37:44;15.00;99.90
22544;DHT22;11438;52.044;8.716;2024-01-30T14:40:10;15.00;99.90
22544;DHT22;11438;52.044;8.716;2024-01-30T14:42:35;15.10;99.90
22544;DHT22;11438;52.044;8.716;2024-01-30T14:45:05;15.00;99.90
22544;DHT22;11438;52.044;8.716;2024-01-30T14:47:31;15.00;99.90
22544;DHT22;11438;52.044;8.716;2024-01-30T14:49:57;15.00;99.90
22544;DHT22;11438;52.044;8.716;2024-01-30T14:52:23;15.00;99.90
22544;DHT22;11438;52.044;8.716;2024-01-30T14:54:48;15.00;99.90
22544;DHT22;11438;52.044;8.716;2024-01-30T14:57:14;15.00;99.90
22544;DHT22;11438;52.044;8.716;2024-01-30T14:59:40;15.00;99.90
22544;DHT22;11438;52.044;8.716;2024-01-30T15:02:06;15.00;99.90
22544;DHT22;11438;52.044;8.716;2024-01-30T15:04:31;15.00;99.90
22544;DHT22;11438;52.044;8.716;2024-01-30T15:06:57;15.00;99.90
22544;DHT22;11438;52.044;8.716;2024-01-30T15:09:23;15.00;99.90
22544;DHT22;11438;52.044;8.716;2024-01-30T15:11:49;15.00;99.90
22544;DHT22;11438;52.044;8.716;2024-01-30T15:14:15;15.00;99.90
22544;DHT22;11438;52.044;8.716;2024-01-30T15:16:40;15.00;99.90
22544;DHT22;11438;52.044;8.716;2024-01-30T15:19:06;15.00;99.90
22544;DHT22;11438;52.044;8.716;2024-01-30T15:21:32;15.00;99.90
22544;DHT22;11438;52.044;8.716;2024-01-30T15:23:57;15.00;99.90
22544;DHT22;11438;52.044;8.716;2024-01-30T15:26:23;15.00;99.90
22544;DHT22;11438;52.044;8.716;2024-01-30T15:28:48;15.00;99.90
22544;DHT22;11438;52.044;8.716;2024-01-30T15:31:14;15.00;99.90
22544;DHT22;11438;52.044;8.716;2024-01-30T15:33:39;15.00;99.90
22544;DHT22;11438;52.044;8.716;2024-01-30T15:36:05;15.00;99.90
22544;DHT22;11438;52.044;8.716;2024-01-30T15:38:31;15.00;99.90
22544;DHT22;11438;52.044;8.716;2024-01-30T15:40:57;15.00;99.90